KLM80X EGGD-EHAM
Flight info
| Callsign | KLM80X |
|---|---|
| Flight time | N/A |
| Altitude | 29000 |
| Route | YORQI L607 ALHAD P72 IPRIL DCT REDFA |
| Aircraft | E190/M-SDE3GILORVW/S |
Departure
| Time | N/A |
|---|---|
| Airport | Bristol Airport (EGGD) |
Arrival
| Time | 2026-05-05 12:17 |
|---|---|
| Airport | Amsterdam Airport Schiphol (EHAM) |
| Time | Latitude | Longitude | Altitude | Speed | Heading |
|---|---|---|---|---|---|
| 2026-05-05 11:56 | 52.10241 | 2.40615 | 23114 ft | 390 kts | 78° |
| 2026-05-05 11:56 | 52.10995 | 2.44864 | 23020 ft | 394 kts | 71° |
| 2026-05-05 11:57 | 52.12046 | 2.49012 | 22992 ft | 399 kts | 67° |
| 2026-05-05 11:57 | 52.13194 | 2.53112 | 22984 ft | 396 kts | 65° |
| 2026-05-05 11:57 | 52.14503 | 2.57075 | 22970 ft | 400 kts | 61° |
| 2026-05-05 11:57 | 52.15897 | 2.60998 | 22971 ft | 397 kts | 61° |
| 2026-05-05 11:58 | 52.17276 | 2.64832 | 22905 ft | 396 kts | 60° |
| 2026-05-05 11:58 | 52.18680 | 2.68718 | 22179 ft | 397 kts | 60° |
| 2026-05-05 11:58 | 52.20056 | 2.72554 | 21857 ft | 388 kts | 61° |
| 2026-05-05 11:58 | 52.21424 | 2.76360 | 21536 ft | 387 kts | 60° |
| 2026-05-05 11:59 | 52.22789 | 2.80145 | 21229 ft | 389 kts | 60° |
| 2026-05-05 11:59 | 52.24157 | 2.83939 | 20917 ft | 385 kts | 60° |
| 2026-05-05 11:59 | 52.25504 | 2.87702 | 20619 ft | 383 kts | 60° |
| 2026-05-05 11:59 | 52.26834 | 2.91405 | 20323 ft | 385 kts | 60° |
| 2026-05-05 12:00 | 52.28181 | 2.95167 | 20020 ft | 380 kts | 60° |
| 2026-05-05 12:00 | 52.29519 | 2.98910 | 19719 ft | 381 kts | 61° |
| 2026-05-05 12:00 | 52.30850 | 3.02649 | 19467 ft | 378 kts | 60° |
| 2026-05-05 12:00 | 52.32153 | 3.06309 | 19228 ft | 377 kts | 61° |
| 2026-05-05 12:01 | 52.33473 | 3.10027 | 18983 ft | 375 kts | 60° |
| 2026-05-05 12:01 | 52.34779 | 3.13705 | 18754 ft | 374 kts | 60° |
| 2026-05-05 12:01 | 52.36091 | 3.17404 | 18527 ft | 373 kts | 61° |
| 2026-05-05 12:01 | 52.37383 | 3.21064 | 18287 ft | 369 kts | 61° |
| 2026-05-05 12:02 | 52.38658 | 3.24664 | 18024 ft | 369 kts | 61° |
| 2026-05-05 12:02 | 52.39942 | 3.28311 | 17678 ft | 367 kts | 60° |
| 2026-05-05 12:02 | 52.41214 | 3.31918 | 17326 ft | 364 kts | 60° |
| 2026-05-05 12:02 | 52.42479 | 3.35517 | 16982 ft | 364 kts | 60° |
| 2026-05-05 12:03 | 52.43482 | 3.39240 | 16637 ft | 360 kts | 75° |
| 2026-05-05 12:03 | 52.44042 | 3.43237 | 16309 ft | 359 kts | 79° |
| 2026-05-05 12:03 | 52.44507 | 3.47237 | 15984 ft | 355 kts | 80° |
| 2026-05-05 12:03 | 52.45048 | 3.51179 | 15654 ft | 354 kts | 75° |
| 2026-05-05 12:04 | 52.45687 | 3.55097 | 15324 ft | 354 kts | 75° |
| 2026-05-05 12:04 | 52.46319 | 3.58924 | 15002 ft | 351 kts | 75° |
| 2026-05-05 12:04 | 52.46964 | 3.62793 | 14694 ft | 352 kts | 75° |
| 2026-05-05 12:04 | 52.47614 | 3.66706 | 14383 ft | 355 kts | 74° |
| 2026-05-05 12:05 | 52.48261 | 3.70600 | 14071 ft | 351 kts | 74° |
| 2026-05-05 12:05 | 52.48654 | 3.74504 | 13754 ft | 351 kts | 91° |
| 2026-05-05 12:05 | 52.48137 | 3.78375 | 13392 ft | 345 kts | 116° |
| 2026-05-05 12:05 | 52.46744 | 3.81511 | 13042 ft | 337 kts | 138° |
| 2026-05-05 12:06 | 52.45191 | 3.84441 | 12935 ft | 339 kts | 129° |
| 2026-05-05 12:06 | 52.43813 | 3.87585 | 12610 ft | 340 kts | 123° |
| 2026-05-05 12:06 | 52.42603 | 3.90889 | 12287 ft | 338 kts | 121° |
| 2026-05-05 12:06 | 52.41343 | 3.94115 | 11876 ft | 334 kts | 124° |
| 2026-05-05 12:07 | 52.40083 | 3.97187 | 11346 ft | 320 kts | 124° |
| 2026-05-05 12:07 | 52.38873 | 4.00118 | 10738 ft | 302 kts | 124° |
| 2026-05-05 12:07 | 52.37717 | 4.02913 | 10144 ft | 293 kts | 124° |
| 2026-05-05 12:07 | 52.36580 | 4.05652 | 9552 ft | 290 kts | 124° |
| 2026-05-05 12:08 | 52.35450 | 4.08378 | 8938 ft | 288 kts | 124° |
| 2026-05-05 12:08 | 52.34333 | 4.11067 | 8341 ft | 284 kts | 124° |
| 2026-05-05 12:08 | 52.33231 | 4.13717 | 7757 ft | 280 kts | 124° |
| 2026-05-05 12:08 | 52.32138 | 4.16345 | 7303 ft | 281 kts | 124° |
| 2026-05-05 12:09 | 52.31038 | 4.18985 | 6900 ft | 279 kts | 124° |
| 2026-05-05 12:09 | 52.29961 | 4.21570 | 6498 ft | 277 kts | 124° |
| 2026-05-05 12:09 | 52.28875 | 4.24168 | 6071 ft | 276 kts | 124° |
| 2026-05-05 12:09 | 52.27792 | 4.26748 | 5633 ft | 275 kts | 123° |
| 2026-05-05 12:10 | 52.25652 | 4.31880 | 4770 ft | 273 kts | 121° |
| 2026-05-05 12:10 | 52.24609 | 4.34378 | 4306 ft | 256 kts | 121° |
| 2026-05-05 12:10 | 52.23689 | 4.36768 | 3823 ft | 242 kts | 115° |
| 2026-05-05 12:11 | 52.22955 | 4.39165 | 3425 ft | 230 kts | 112° |
| 2026-05-05 12:11 | 52.22295 | 4.41447 | 3124 ft | 222 kts | 112° |
| 2026-05-05 12:11 | 52.21648 | 4.43739 | 2995 ft | 223 kts | 108° |
| 2026-05-05 12:11 | 52.21167 | 4.46141 | 2960 ft | 224 kts | 101° |
| 2026-05-05 12:12 | 52.20900 | 4.48613 | 2943 ft | 219 kts | 91° |
| 2026-05-05 12:12 | 52.20815 | 4.51103 | 2940 ft | 215 kts | 86° |
| 2026-05-05 12:12 | 52.21103 | 4.53300 | 2822 ft | 189 kts | 62° |
| 2026-05-05 12:12 | 52.21760 | 4.55069 | 2447 ft | 174 kts | 57° |
| 2026-05-05 12:13 | 52.22349 | 4.56690 | 2295 ft | 158 kts | 57° |
| 2026-05-05 12:13 | 52.22897 | 4.58140 | 2154 ft | 150 kts | 55° |
| 2026-05-05 12:13 | 52.23432 | 4.59507 | 2007 ft | 139 kts | 56° |
| 2026-05-05 12:13 | 52.23942 | 4.60837 | 1847 ft | 138 kts | 56° |
| 2026-05-05 12:14 | 52.24437 | 4.62115 | 1672 ft | 131 kts | 55° |
| 2026-05-05 12:14 | 52.24891 | 4.63292 | 1519 ft | 112 kts | 56° |
| 2026-05-05 12:14 | 52.25274 | 4.64288 | 1306 ft | 96 kts | 55° |
| 2026-05-05 12:14 | 52.25627 | 4.65197 | 907 ft | 100 kts | 55° |
| 2026-05-05 12:15 | 52.26022 | 4.66224 | 1189 ft | 111 kts | 54° |
| 2026-05-05 12:15 | 52.26477 | 4.67407 | 1113 ft | 126 kts | 58° |
| 2026-05-05 12:15 | 52.26931 | 4.68630 | 931 ft | 127 kts | 54° |
| 2026-05-05 12:15 | 52.27421 | 4.69849 | 588 ft | 128 kts | 56° |
| 2026-05-05 12:16 | 52.27882 | 4.71056 | 429 ft | 124 kts | 56° |
| 2026-05-05 12:16 | 52.28354 | 4.72276 | 223 ft | 126 kts | 55° |
| 2026-05-05 12:16 | 52.28818 | 4.73480 | 68 ft | 131 kts | 57° |
| 2026-05-05 12:16 | 52.29268 | 4.74652 | -1 ft | 107 kts | 58° |
| 2026-05-05 12:17 | 52.29550 | 4.75389 | -4 ft | 34 kts | 57° |
| 2026-05-05 12:17 | 52.29679 | 4.75695 | -3 ft | 32 kts | 44° |
| 2026-05-05 12:17 | 52.29866 | 4.75877 | -3 ft | 31 kts | 27° |
| 2026-05-05 12:17 | 52.30000 | 4.76011 | -2 ft | 18 kts | 50° |
| 2026-05-05 12:18 | 52.30068 | 4.76187 | -2 ft | 19 kts | 58° |
| 2026-05-05 12:18 | 52.30109 | 4.76286 | -2 ft | 0 kts | 39° |
| 2026-05-05 12:18 | 52.30113 | 4.76288 | -2 ft | 1 kts | 25° |
| 2026-05-05 12:18 | 52.30123 | 4.76289 | -2 ft | 2 kts | 2° |
| 2026-05-05 12:19 | 52.30166 | 4.76272 | -2 ft | 12 kts | 352° |
| 2026-05-05 12:19 | 52.30266 | 4.76194 | -2 ft | 10 kts | 328° |
| 2026-05-05 12:19 | 52.30284 | 4.76192 | -2 ft | 3 kts | 10° |
| 2026-05-05 12:19 | 52.30304 | 4.76228 | -2 ft | 4 kts | 56° |
| 2026-05-05 12:20 | 52.30309 | 4.76241 | -2 ft | 0 kts | 57° |